createdAt,value
2023-05-14T00:01:10.352Z,15.75
2023-05-14T00:03:38.884Z,15.74
2023-05-14T00:06:05.867Z,15.71
2023-05-14T00:08:33.055Z,15.74
2023-05-14T00:11:00.064Z,15.72
2023-05-14T00:13:27.241Z,15.70
2023-05-14T00:15:54.093Z,15.71
2023-05-14T00:18:21.329Z,15.70
2023-05-14T00:20:48.366Z,15.63
2023-05-14T00:23:15.465Z,15.59
2023-05-14T00:25:42.427Z,15.56
2023-05-14T00:28:09.530Z,15.52
2023-05-14T00:30:36.388Z,15.46
2023-05-14T00:33:04.079Z,15.49
2023-05-14T00:35:31.018Z,15.46
2023-05-14T00:37:58.117Z,15.44
2023-05-14T00:40:27.748Z,15.34
2023-05-14T00:42:56.507Z,15.34
2023-05-14T00:45:23.590Z,15.28
2023-05-14T00:47:52.411Z,15.29
2023-05-14T00:50:20.030Z,15.26
2023-05-14T00:52:47.915Z,15.24
2023-05-14T00:55:17.613Z,15.26
2023-05-14T00:57:45.258Z,15.27
2023-05-14T01:00:12.920Z,15.22
2023-05-14T01:02:40.230Z,15.22
2023-05-14T01:05:09.079Z,15.28
2023-05-14T01:08:04.548Z,15.31
2023-05-14T01:11:05.308Z,15.29
2023-05-14T01:13:52.736Z,15.31
2023-05-14T01:16:20.267Z,15.32
2023-05-14T01:18:51.715Z,15.33
2023-05-14T01:21:40.934Z,15.31
2023-05-14T01:24:08.930Z,15.32
2023-05-14T01:26:37.074Z,15.36
2023-05-14T01:29:26.217Z,15.36
2023-05-14T01:31:57.742Z,15.39
2023-05-14T01:34:31.318Z,15.36
2023-05-14T01:36:59.971Z,15.30
2023-05-14T01:39:28.251Z,15.30
2023-05-14T01:41:56.412Z,15.34
2023-05-14T01:44:25.260Z,15.34
2023-05-14T01:46:52.772Z,15.34
2023-05-14T01:49:20.017Z,15.37
2023-05-14T01:51:47.008Z,15.32
2023-05-14T01:54:14.109Z,15.34
2023-05-14T01:56:41.179Z,15.30
2023-05-14T01:59:08.433Z,15.23
2023-05-14T02:01:35.483Z,15.17
2023-05-14T02:04:02.676Z,15.14
2023-05-14T02:06:29.705Z,15.12
2023-05-14T02:08:56.835Z,15.09
2023-05-14T02:11:23.849Z,15.11
2023-05-14T02:13:51.155Z,15.08
2023-05-14T02:16:19.321Z,15.08
2023-05-14T02:18:46.529Z,15.04
2023-05-14T02:21:13.434Z,14.99
2023-05-14T02:23:42.141Z,15.02
2023-05-14T02:26:10.820Z,15.08
2023-05-14T02:28:38.351Z,15.10
2023-05-14T02:31:05.556Z,15.11
2023-05-14T02:33:32.942Z,15.12
2023-05-14T02:35:59.969Z,15.13
2023-05-14T02:38:27.291Z,15.14
2023-05-14T02:40:54.372Z,15.11
2023-05-14T02:43:21.656Z,15.13
2023-05-14T02:45:48.869Z,15.13
2023-05-14T02:48:15.996Z,15.12
2023-05-14T02:50:42.986Z,15.08
2023-05-14T02:53:10.289Z,15.09
2023-05-14T02:55:37.464Z,15.05
2023-05-14T02:58:04.546Z,15.02
2023-05-14T03:00:31.530Z,14.95
2023-05-14T03:02:59.033Z,14.93
2023-05-14T03:05:26.274Z,14.89
2023-05-14T03:07:53.746Z,14.83
2023-05-14T03:10:20.917Z,14.81
2023-05-14T03:12:48.175Z,14.83
2023-05-14T03:15:15.206Z,14.82
2023-05-14T03:17:42.514Z,14.80
2023-05-14T03:20:10.746Z,14.74
2023-05-14T03:22:38.024Z,14.74
2023-05-14T03:25:05.381Z,14.70
2023-05-14T03:27:33.706Z,14.64
2023-05-14T03:30:00.952Z,14.61
2023-05-14T03:32:28.368Z,14.62
2023-05-14T03:34:55.712Z,14.58
2023-05-14T03:37:23.235Z,14.58
2023-05-14T03:39:50.156Z,14.60
2023-05-14T03:42:17.310Z,14.62
2023-05-14T03:44:44.488Z,14.60
2023-05-14T03:47:11.834Z,14.64
2023-05-14T03:49:38.743Z,14.65
2023-05-14T03:52:06.015Z,14.64
2023-05-14T03:54:32.871Z,14.66
2023-05-14T03:57:00.073Z,14.68
2023-05-14T03:59:26.974Z,14.63
2023-05-14T04:01:54.206Z,14.66
2023-05-14T04:04:21.209Z,14.69
2023-05-14T04:06:48.413Z,14.75
2023-05-14T04:09:15.500Z,14.78
2023-05-14T04:11:42.651Z,14.84
2023-05-14T04:14:09.559Z,14.88
2023-05-14T04:16:36.771Z,14.84
2023-05-14T04:19:07.278Z,14.81
2023-05-14T04:21:34.428Z,14.83
2023-05-14T04:24:01.542Z,14.78
2023-05-14T04:26:28.645Z,14.76
2023-05-14T04:28:55.748Z,14.78
2023-05-14T04:31:22.993Z,14.80
2023-05-14T04:33:49.877Z,14.77
2023-05-14T04:36:17.715Z,14.76
2023-05-14T04:38:44.646Z,14.75
2023-05-14T04:41:11.835Z,14.76
2023-05-14T04:43:40.124Z,14.79
2023-05-14T04:46:07.471Z,14.78
2023-05-14T04:48:34.407Z,14.78
2023-05-14T04:51:01.613Z,14.79
2023-05-14T04:53:28.487Z,14.76
2023-05-14T04:55:55.699Z,14.80
2023-05-14T04:58:24.126Z,14.79
2023-05-14T05:00:51.283Z,14.74
2023-05-14T05:03:18.214Z,14.77
2023-05-14T05:05:45.398Z,14.73
2023-05-14T05:08:12.227Z,14.77
2023-05-14T05:10:39.162Z,14.82
2023-05-14T05:13:06.298Z,14.82
2023-05-14T05:15:33.249Z,14.88
2023-05-14T05:18:00.869Z,14.89
2023-05-14T05:20:28.306Z,14.93
2023-05-14T05:22:55.456Z,14.97
2023-05-14T05:25:22.397Z,15.01
2023-05-14T05:27:49.747Z,14.95
2023-05-14T05:30:16.940Z,15.01
2023-05-14T05:32:44.348Z,14.95
2023-05-14T05:35:11.345Z,15.03
2023-05-14T05:37:38.534Z,15.12
2023-05-14T05:40:06.977Z,15.23
2023-05-14T05:42:34.122Z,15.26
2023-05-14T05:45:00.996Z,15.21
2023-05-14T05:47:28.178Z,15.26
2023-05-14T05:49:55.048Z,15.25
2023-05-14T05:52:22.191Z,15.28
2023-05-14T05:54:49.135Z,15.27
2023-05-14T05:57:16.545Z,15.28
2023-05-14T05:59:43.592Z,15.31
2023-05-14T06:02:10.931Z,15.38
2023-05-14T06:04:37.899Z,15.43
2023-05-14T06:07:05.246Z,15.46
2023-05-14T06:09:32.179Z,15.58
2023-05-14T06:11:59.318Z,15.64
2023-05-14T06:14:26.274Z,15.75
2023-05-14T06:16:53.563Z,15.79
2023-05-14T06:19:20.656Z,15.86
2023-05-14T06:21:47.814Z,15.89
2023-05-14T06:24:14.656Z,15.89
2023-05-14T06:26:41.782Z,15.87
2023-05-14T06:29:08.683Z,15.84
2023-05-14T06:31:35.881Z,15.86
2023-05-14T06:34:03.025Z,15.95
2023-05-14T06:36:30.492Z,16.00
2023-05-14T06:38:57.769Z,16.11
2023-05-14T06:41:25.038Z,16.13
2023-05-14T06:43:51.939Z,16.12
2023-05-14T06:46:19.047Z,16.01
2023-05-14T06:48:45.993Z,16.08
2023-05-14T06:51:13.403Z,16.00
2023-05-14T06:53:41.217Z,16.14
2023-05-14T06:56:08.398Z,16.24
2023-05-14T06:58:35.425Z,16.33
2023-05-14T07:01:02.598Z,16.50
2023-05-14T07:03:29.499Z,16.50
2023-05-14T07:05:56.669Z,16.67
2023-05-14T07:08:23.574Z,16.71
2023-05-14T07:10:50.876Z,16.67
2023-05-14T07:13:17.766Z,16.70
2023-05-14T07:15:44.946Z,16.80
2023-05-14T07:18:11.856Z,16.78
2023-05-14T07:20:39.458Z,16.80
2023-05-14T07:23:06.430Z,16.87
2023-05-14T07:25:33.634Z,16.79
2023-05-14T07:28:00.615Z,16.84
2023-05-14T07:30:27.935Z,16.90
2023-05-14T07:32:54.977Z,16.91
2023-05-14T07:35:22.962Z,16.86
2023-05-14T07:37:50.023Z,16.94
2023-05-14T07:40:17.334Z,16.95
2023-05-14T07:42:44.299Z,16.98
2023-05-14T07:45:11.687Z,17.00
2023-05-14T07:47:40.901Z,17.07
2023-05-14T07:50:08.857Z,17.15
2023-05-14T07:52:35.942Z,17.21
2023-05-14T07:55:04.285Z,17.27
2023-05-14T07:57:31.220Z,17.31
2023-05-14T07:59:58.463Z,17.40
2023-05-14T08:02:25.488Z,17.59
2023-05-14T08:04:53.106Z,17.65
2023-05-14T08:07:20.052Z,17.42
2023-05-14T08:09:47.404Z,17.58
2023-05-14T08:12:14.402Z,17.72
2023-05-14T08:14:41.484Z,17.75
2023-05-14T08:17:08.480Z,17.86
2023-05-14T08:19:35.772Z,17.86
2023-05-14T08:22:02.706Z,17.95
2023-05-14T08:24:29.934Z,17.94
2023-05-14T08:26:56.975Z,17.90
2023-05-14T08:29:24.193Z,17.98
2023-05-14T08:31:51.400Z,18.01
2023-05-14T08:34:18.611Z,18.02
2023-05-14T08:36:45.938Z,18.03
2023-05-14T08:39:13.724Z,17.91
2023-05-14T08:41:41.424Z,17.95
2023-05-14T08:44:14.639Z,18.05
2023-05-14T08:46:42.020Z,17.98
2023-05-14T08:49:40.827Z,18.20
2023-05-14T08:52:13.143Z,18.39
2023-05-14T08:54:40.963Z,18.54
2023-05-14T08:57:10.731Z,18.68
2023-05-14T08:59:38.213Z,18.70
2023-05-14T09:02:07.053Z,18.79
2023-05-14T09:04:37.026Z,19.06
2023-05-14T09:07:04.354Z,19.18
2023-05-14T09:09:31.890Z,19.23
2023-05-14T09:11:58.806Z,19.14
2023-05-14T09:14:26.338Z,19.05
2023-05-14T09:16:54.775Z,18.87
2023-05-14T09:19:22.364Z,18.85
2023-05-14T09:21:50.285Z,19.05
2023-05-14T09:24:26.313Z,19.01
2023-05-14T09:26:58.641Z,18.94
2023-05-14T09:29:27.662Z,19.10
2023-05-14T09:31:56.679Z,19.14
2023-05-14T09:34:33.445Z,19.25
2023-05-14T09:37:03.927Z,19.22
2023-05-14T09:39:33.704Z,19.20
2023-05-14T09:42:01.207Z,19.20
2023-05-14T09:44:29.186Z,19.16
2023-05-14T09:46:56.746Z,19.21
2023-05-14T09:49:24.059Z,19.17
2023-05-14T09:51:51.674Z,19.33
2023-05-14T09:54:18.865Z,19.31
2023-05-14T09:56:45.889Z,19.33
2023-05-14T09:59:13.145Z,19.40
2023-05-14T10:01:43.999Z,19.31
2023-05-14T10:04:12.601Z,19.21
2023-05-14T10:06:42.473Z,19.38
2023-05-14T10:09:13.831Z,19.35
2023-05-14T10:11:45.398Z,19.24
2023-05-14T10:14:26.848Z,19.35
2023-05-14T10:17:00.726Z,19.41
2023-05-14T10:19:32.534Z,19.38
2023-05-14T10:22:11.346Z,19.35
2023-05-14T10:24:39.281Z,19.35
2023-05-14T10:27:07.161Z,19.28
2023-05-14T10:29:36.509Z,19.09
2023-05-14T10:32:09.585Z,19.03
2023-05-14T10:34:46.213Z,18.96
2023-05-14T10:37:20.956Z,18.95
2023-05-14T10:40:14.697Z,18.98
2023-05-14T10:42:43.745Z,19.02
2023-05-14T10:45:15.835Z,19.01
2023-05-14T10:47:46.800Z,19.21
2023-05-14T10:50:17.748Z,19.19
2023-05-14T10:52:46.270Z,19.14
2023-05-14T10:55:16.178Z,19.19
2023-05-14T10:57:46.583Z,19.11
2023-05-14T11:00:15.380Z,19.17
2023-05-14T11:02:45.126Z,19.17
2023-05-14T11:05:16.985Z,19.17
2023-05-14T11:07:46.728Z,19.14
2023-05-14T11:10:16.809Z,19.06
2023-05-14T11:12:51.050Z,19.22
2023-05-14T11:15:23.512Z,19.28
2023-05-14T11:17:52.324Z,19.40
2023-05-14T11:20:20.770Z,19.43
2023-05-14T11:22:51.645Z,19.53
2023-05-14T11:25:19.000Z,19.64
2023-05-14T11:27:48.338Z,19.78
2023-05-14T11:30:20.736Z,19.90
2023-05-14T11:32:50.379Z,19.99
2023-05-14T11:35:18.476Z,20.08
2023-05-14T11:37:52.642Z,20.16
2023-05-14T11:40:20.220Z,20.20
2023-05-14T11:42:52.950Z,20.29
2023-05-14T11:45:27.736Z,20.24
2023-05-14T11:47:54.967Z,20.20
2023-05-14T11:50:25.294Z,20.21
2023-05-14T11:52:57.501Z,20.31
2023-05-14T11:55:24.703Z,20.28
2023-05-14T11:57:52.170Z,20.47
2023-05-14T12:00:22.249Z,20.57
2023-05-14T12:02:50.239Z,20.82
2023-05-14T12:05:17.419Z,20.77
2023-05-14T12:07:46.303Z,20.84
2023-05-14T12:10:14.008Z,20.65
2023-05-14T12:12:46.423Z,20.85
2023-05-14T12:15:17.047Z,20.92
2023-05-14T12:17:51.974Z,21.08
2023-05-14T12:20:19.063Z,21.23
2023-05-14T12:22:46.314Z,21.10
2023-05-14T12:25:14.119Z,21.01
2023-05-14T12:27:45.435Z,20.75
2023-05-14T12:30:21.235Z,20.92
2023-05-14T12:32:52.765Z,20.71
2023-05-14T12:35:22.833Z,20.76
2023-05-14T12:37:50.929Z,20.84
2023-05-14T12:40:18.007Z,20.55
2023-05-14T12:42:45.286Z,20.38
2023-05-14T12:45:12.317Z,20.45
2023-05-14T12:47:39.487Z,20.41
2023-05-14T12:50:07.411Z,20.27
2023-05-14T12:52:39.289Z,20.52
2023-05-14T12:55:10.816Z,20.82
2023-05-14T12:57:40.239Z,20.92
2023-05-14T13:00:13.951Z,20.93
2023-05-14T13:02:45.537Z,20.89
2023-05-14T13:05:13.013Z,20.89
2023-05-14T13:07:40.579Z,20.84
2023-05-14T13:10:08.513Z,20.77
2023-05-14T13:12:35.768Z,20.86
2023-05-14T13:15:02.836Z,20.84
2023-05-14T13:17:30.643Z,20.96
2023-05-14T13:19:57.623Z,21.06
2023-05-14T13:22:24.848Z,20.94
2023-05-14T13:24:51.712Z,20.94
2023-05-14T13:27:18.872Z,20.92
2023-05-14T13:29:45.804Z,20.92
2023-05-14T13:32:13.090Z,20.90
2023-05-14T13:34:40.178Z,20.94
2023-05-14T13:37:07.437Z,20.90
2023-05-14T13:39:35.034Z,20.92
2023-05-14T13:42:02.388Z,20.83
2023-05-14T13:44:29.558Z,20.80
2023-05-14T13:46:56.854Z,20.77
2023-05-14T13:49:23.905Z,20.45
2023-05-14T13:51:51.133Z,20.38
2023-05-14T13:54:18.484Z,20.39
2023-05-14T13:56:45.902Z,20.39
2023-05-14T13:59:12.917Z,20.31
2023-05-14T14:01:40.349Z,20.14
2023-05-14T14:04:08.074Z,20.32
2023-05-14T14:06:35.450Z,20.03
2023-05-14T14:09:02.931Z,19.99
2023-05-14T14:11:30.320Z,19.78
2023-05-14T14:13:57.342Z,19.89
2023-05-14T14:16:24.680Z,19.74
2023-05-14T14:18:51.746Z,19.64
2023-05-14T14:21:21.038Z,19.71
2023-05-14T14:23:48.377Z,19.59
2023-05-14T14:26:16.000Z,19.49
2023-05-14T14:28:43.104Z,19.57
2023-05-14T14:31:11.247Z,19.69
2023-05-14T14:33:38.232Z,19.59
2023-05-14T14:36:06.460Z,19.44
2023-05-14T14:38:33.461Z,19.32
2023-05-14T14:41:03.267Z,19.41
2023-05-14T14:43:30.311Z,19.54
2023-05-14T14:45:57.824Z,19.62
2023-05-14T14:48:37.387Z,19.58
2023-05-14T14:51:06.764Z,19.50
2023-05-14T14:53:36.651Z,19.40
2023-05-14T14:56:13.039Z,19.40
2023-05-14T14:58:42.035Z,19.24
2023-05-14T15:01:09.533Z,19.29
2023-05-14T15:03:36.753Z,19.30
2023-05-14T15:06:04.216Z,19.25
2023-05-14T15:08:31.199Z,19.22
2023-05-14T15:10:59.424Z,19.30
2023-05-14T15:13:27.178Z,19.09
2023-05-14T15:15:54.606Z,19.01
2023-05-14T15:18:21.602Z,19.01
2023-05-14T15:20:49.252Z,18.87
2023-05-14T15:23:16.393Z,18.81
2023-05-14T15:25:43.740Z,18.78
2023-05-14T15:28:11.347Z,18.66
2023-05-14T15:30:38.747Z,18.41
2023-05-14T15:33:08.673Z,18.23
2023-05-14T15:35:36.703Z,18.36
2023-05-14T15:38:03.931Z,18.22
2023-05-14T15:40:31.239Z,18.14
2023-05-14T15:42:58.147Z,18.22
2023-05-14T15:45:25.590Z,18.28
2023-05-14T15:47:52.610Z,18.43
2023-05-14T15:50:20.556Z,18.34
2023-05-14T15:52:48.135Z,18.30
2023-05-14T15:55:15.556Z,18.25
2023-05-14T15:57:42.506Z,18.19
2023-05-14T16:00:11.110Z,18.21
2023-05-14T16:02:39.556Z,18.11
2023-05-14T16:05:08.712Z,18.06
2023-05-14T16:07:37.162Z,18.09
2023-05-14T16:10:06.055Z,18.05
2023-05-14T16:12:32.990Z,17.86
2023-05-14T16:15:00.431Z,17.69
2023-05-14T16:17:28.624Z,17.59
2023-05-14T16:19:56.670Z,17.74
2023-05-14T16:22:23.782Z,17.69
2023-05-14T16:24:51.363Z,17.70
2023-05-14T16:27:19.232Z,17.74
2023-05-14T16:29:46.691Z,17.74
2023-05-14T16:32:13.783Z,17.69
2023-05-14T16:34:41.494Z,17.49
2023-05-14T16:37:09.288Z,17.46
2023-05-14T16:39:38.037Z,17.46
2023-05-14T16:42:05.384Z,17.03
2023-05-14T16:44:32.892Z,17.20
2023-05-14T16:46:59.909Z,16.93
2023-05-14T16:49:27.271Z,16.91
2023-05-14T16:51:54.325Z,16.85
2023-05-14T16:54:21.917Z,16.89
2023-05-14T16:56:49.462Z,16.71
2023-05-14T16:59:17.598Z,16.68
2023-05-14T17:01:44.953Z,16.71
2023-05-14T17:04:12.356Z,16.66
2023-05-14T17:06:39.458Z,16.71
2023-05-14T17:09:07.107Z,16.58
2023-05-14T17:11:34.175Z,16.60
2023-05-14T17:14:01.600Z,16.59
2023-05-14T17:16:28.872Z,16.59
2023-05-14T17:18:55.984Z,16.57
2023-05-14T17:21:23.314Z,16.52
2023-05-14T17:23:50.850Z,16.55
2023-05-14T17:26:18.098Z,16.51
2023-05-14T17:28:44.983Z,16.43
2023-05-14T17:31:12.301Z,16.38
2023-05-14T17:33:39.400Z,16.39
2023-05-14T17:36:08.669Z,16.43
2023-05-14T17:38:36.022Z,16.40
2023-05-14T17:41:03.395Z,16.41
2023-05-14T17:43:30.417Z,16.41
2023-05-14T17:45:57.835Z,16.37
2023-05-14T17:48:24.895Z,16.34
2023-05-14T17:50:53.205Z,16.39
2023-05-14T17:53:20.282Z,16.36
2023-05-14T17:55:48.028Z,16.15
2023-05-14T17:58:16.138Z,16.11
2023-05-14T18:00:44.050Z,16.13
2023-05-14T18:03:11.759Z,16.06
2023-05-14T18:05:39.217Z,16.04
2023-05-14T18:08:06.216Z,15.91
2023-05-14T18:10:33.472Z,15.92
2023-05-14T18:13:00.811Z,15.93
2023-05-14T18:15:28.379Z,15.95
2023-05-14T18:17:55.511Z,15.93
2023-05-14T18:20:23.140Z,15.86
2023-05-14T18:22:51.090Z,15.82
2023-05-14T18:25:18.689Z,15.77
2023-05-14T18:27:45.823Z,15.74
2023-05-14T18:30:15.407Z,15.72
2023-05-14T18:32:45.189Z,15.69
2023-05-14T18:35:13.767Z,15.71
2023-05-14T18:37:41.135Z,15.69
2023-05-14T18:40:09.565Z,15.70
2023-05-14T18:42:36.810Z,15.70
2023-05-14T18:45:04.743Z,15.61
2023-05-14T18:47:35.019Z,15.54
2023-05-14T18:50:02.370Z,15.56
2023-05-14T18:52:29.780Z,15.58
2023-05-14T18:54:57.084Z,15.59
2023-05-14T18:57:26.889Z,15.59
2023-05-14T18:59:54.582Z,15.55
2023-05-14T19:02:22.052Z,15.47
2023-05-14T19:04:53.004Z,15.36
2023-05-14T19:07:22.244Z,15.29
2023-05-14T19:09:50.282Z,15.27
2023-05-14T19:12:17.835Z,15.23
2023-05-14T19:14:45.654Z,15.21
2023-05-14T19:17:12.725Z,15.18
2023-05-14T19:19:39.979Z,15.04
2023-05-14T19:22:07.436Z,15.07
2023-05-14T19:24:34.794Z,15.07
2023-05-14T19:27:01.772Z,15.08
2023-05-14T19:29:29.164Z,14.99
2023-05-14T19:31:56.167Z,14.95
2023-05-14T19:34:23.618Z,15.01
2023-05-14T19:36:51.200Z,15.02
2023-05-14T19:39:21.392Z,15.05
2023-05-14T19:41:48.445Z,15.03
2023-05-14T19:44:15.711Z,15.04
2023-05-14T19:46:43.007Z,15.03
2023-05-14T19:49:10.933Z,15.13
2023-05-14T19:51:38.098Z,15.16
2023-05-14T19:54:05.645Z,15.17
2023-05-14T19:56:32.676Z,14.96
2023-05-14T19:58:59.829Z,14.89
2023-05-14T20:01:27.536Z,14.95
2023-05-14T20:03:54.716Z,15.04
2023-05-14T20:06:21.799Z,15.09
2023-05-14T20:08:49.058Z,15.09
2023-05-14T20:11:18.062Z,15.01
2023-05-14T20:13:45.636Z,15.02
2023-05-14T20:16:13.690Z,14.91
2023-05-14T20:18:41.317Z,14.94
2023-05-14T20:21:08.414Z,14.93
2023-05-14T20:23:35.724Z,14.93
2023-05-14T20:26:04.096Z,15.00
2023-05-14T20:28:31.573Z,15.03
2023-05-14T20:30:59.075Z,14.99
2023-05-14T20:33:27.166Z,14.98
2023-05-14T20:35:54.171Z,14.93
2023-05-14T20:38:21.885Z,14.93
2023-05-14T20:40:48.884Z,14.92
2023-05-14T20:43:16.463Z,14.88
2023-05-14T20:45:43.546Z,14.87
2023-05-14T20:48:12.912Z,14.92
2023-05-14T20:50:40.043Z,14.87
2023-05-14T20:53:07.406Z,14.78
2023-05-14T20:55:34.464Z,14.76
2023-05-14T20:58:01.835Z,14.77
2023-05-14T21:00:28.826Z,14.77
2023-05-14T21:02:56.902Z,14.79
2023-05-14T21:05:24.194Z,14.82
2023-05-14T21:07:51.817Z,14.85
2023-05-14T21:10:18.748Z,14.86
2023-05-14T21:12:46.078Z,14.88
2023-05-14T21:15:13.082Z,14.87
2023-05-14T21:17:40.975Z,14.84
2023-05-14T21:20:09.046Z,14.80
2023-05-14T21:22:36.258Z,14.75
2023-05-14T21:25:03.522Z,14.73
2023-05-14T21:27:32.169Z,14.77
2023-05-14T21:30:00.007Z,14.80
2023-05-14T21:32:28.419Z,14.80
2023-05-14T21:34:56.165Z,14.75
2023-05-14T21:37:23.593Z,14.75
2023-05-14T21:39:51.016Z,14.79
2023-05-14T21:42:20.979Z,14.78
2023-05-14T21:44:48.171Z,14.76
2023-05-14T21:47:16.506Z,14.70
2023-05-14T21:49:43.737Z,14.66
2023-05-14T21:52:11.508Z,14.65
2023-05-14T21:54:38.492Z,14.62
2023-05-14T21:57:06.501Z,14.59
2023-05-14T21:59:39.811Z,14.53
2023-05-14T22:02:07.942Z,14.50
2023-05-14T22:04:35.372Z,14.46
2023-05-14T22:07:03.160Z,14.42
2023-05-14T22:09:30.564Z,14.39
2023-05-14T22:11:58.479Z,14.37
2023-05-14T22:14:27.309Z,14.35
2023-05-14T22:16:56.325Z,14.33
2023-05-14T22:19:23.729Z,14.31
2023-05-14T22:21:51.455Z,14.27
2023-05-14T22:24:19.105Z,14.26
2023-05-14T22:26:46.407Z,14.24
2023-05-14T22:29:13.662Z,14.22
2023-05-14T22:31:41.036Z,14.19
2023-05-14T22:34:08.197Z,14.20
2023-05-14T22:36:35.549Z,14.16
2023-05-14T22:39:02.637Z,14.14
2023-05-14T22:41:29.953Z,14.13
2023-05-14T22:43:57.102Z,14.05
2023-05-14T22:46:24.521Z,14.05
2023-05-14T22:48:52.163Z,14.04
2023-05-14T22:51:19.435Z,14.01
2023-05-14T22:53:47.315Z,14.00
2023-05-14T22:56:15.873Z,13.97
2023-05-14T22:58:43.228Z,13.98
2023-05-14T23:01:10.740Z,13.98
2023-05-14T23:03:37.912Z,13.94
2023-05-14T23:06:05.499Z,13.93
2023-05-14T23:08:32.606Z,13.92
2023-05-14T23:10:59.945Z,13.90
2023-05-14T23:13:26.921Z,13.91
2023-05-14T23:15:54.322Z,13.88
2023-05-14T23:18:21.603Z,13.89
2023-05-14T23:20:49.055Z,13.87
2023-05-14T23:23:16.068Z,13.86
2023-05-14T23:25:43.601Z,13.84
2023-05-14T23:28:12.403Z,13.80
2023-05-14T23:30:39.765Z,13.73
2023-05-14T23:33:07.090Z,13.71
2023-05-14T23:35:38.567Z,13.70
2023-05-14T23:38:06.195Z,13.68
2023-05-14T23:40:34.510Z,13.68
2023-05-14T23:43:01.566Z,13.69
2023-05-14T23:45:30.740Z,13.65
2023-05-14T23:47:59.329Z,13.62
2023-05-14T23:50:26.987Z,13.59
2023-05-14T23:52:55.939Z,13.59
2023-05-14T23:55:23.524Z,13.61
2023-05-14T23:57:51.190Z,13.56
